Time;durP1;ratioP1;P1;durP2;ratioP2;P2;SDS_P1;SDS_P2;PMS_P1;PMS_P2;Temp;Humidity;BMP_temperature;BMP_pressure;BME280_temperature;BME280_humidity;BME280_pressure;Samples;Min_cycle;Max_cycle;Signal;HPM_P1;HPM_P2
2021/07/25 00:01:26;;;;;;;;;0.00;0.00;;;;;28.15;43.93;100524.88;4937192;28;45643;-81
2021/07/25 00:03:51;;;;;;;;;2.00;1.67;;;;;28.21;44.18;100533.03;4939665;28;46162;-85
2021/07/25 00:06:17;;;;;;;;;1.00;1.00;;;;;28.21;44.07;100523.13;4940449;28;45425;-84
2021/07/25 00:08:43;;;;;;;;;4.00;1.00;;;;;28.29;43.59;100522.81;4939147;28;45491;-83
2021/07/25 00:11:08;;;;;;;;;1.67;1.00;;;;;28.30;43.50;100531.66;4938997;28;46225;-87
2021/07/25 00:13:39;;;;;;;;;1.00;1.00;;;;;28.37;43.76;100537.69;4939012;28;46149;-85
2021/07/25 00:16:04;;;;;;;;;3.67;1.00;;;;;28.44;43.49;100529.56;4937442;28;45535;-86
2021/07/25 00:18:30;;;;;;;;;1.33;1.00;;;;;28.46;43.27;100519.47;4938686;28;45594;-84
2021/07/25 00:20:55;;;;;;;;;0.00;0.00;;;;;28.52;43.32;100521.22;4938516;28;45370;-85
2021/07/25 00:23:22;;;;;;;;;1.67;1.00;;;;;28.57;42.88;100509.00;4933453;28;45937;-85
2021/07/25 00:25:49;;;;;;;;;2.00;1.67;;;;;28.61;42.88;100505.63;4939252;28;45383;-85
2021/07/25 00:28:18;;;;;;;;;3.00;2.00;;;;;28.65;43.44;100513.19;4938739;28;45345;-85
2021/07/25 00:30:44;;;;;;;;;4.00;2.00;;;;;28.68;43.29;100512.69;4938092;28;45270;-85
2021/07/25 00:33:10;;;;;;;;;1.00;1.00;;;;;28.67;42.96;100509.22;4938433;28;47465;-85
2021/07/25 00:35:35;;;;;;;;;2.67;1.67;;;;;28.69;43.37;100499.09;4938633;28;45273;-85
2021/07/25 00:38:00;;;;;;;;;1.00;1.00;;;;;28.74;43.05;100501.06;4939614;28;45340;-86
2021/07/25 00:40:42;;;;;;;;;1.00;1.00;;;;;28.75;43.34;100492.00;4938355;28;45419;-85
2021/07/25 00:43:08;;;;;;;;;0.33;0.33;;;;;28.75;42.91;100500.03;4931068;28;46346;-85
2021/07/25 00:45:33;;;;;;;;;3.00;1.00;;;;;28.78;43.26;100496.06;4930425;28;45444;-85
2021/07/25 00:47:59;;;;;;;;;1.33;1.33;;;;;28.78;43.28;100490.72;4939057;28;45450;-85
2021/07/25 00:50:25;;;;;;;;;1.67;1.00;;;;;28.82;43.02;100497.22;4923542;28;45377;-85
2021/07/25 00:52:51;;;;;;;;;1.00;1.00;;;;;28.80;42.71;100489.44;4925746;28;46332;-85
2021/07/25 00:55:19;;;;;;;;;1.00;1.00;;;;;28.84;42.30;100490.59;4936679;28;45825;-85
2021/07/25 00:57:44;;;;;;;;;1.00;1.00;;;;;28.82;42.56;100484.66;4934368;28;45677;-85
2021/07/25 01:00:10;;;;;;;;;1.00;1.00;;;;;28.87;42.56;100491.16;4927179;28;45535;-85
2021/07/25 01:03:19;;;;;;;;;1.00;1.00;;;;;28.87;42.79;100494.66;4922949;28;46513;-85
2021/07/25 01:05:55;;;;;;;;;0.67;0.33;;;;;28.88;42.48;100488.25;4923016;28;45559;-85
2021/07/25 01:08:42;;;;;;;;;1.00;1.00;;;;;28.89;42.79;100481.00;4936039;28;45348;-85
2021/07/25 01:11:11;;;;;;;;;1.00;1.00;;;;;28.86;42.79;100474.28;4923894;28;45305;-85
2021/07/25 01:13:40;;;;;;;;;2.67;1.00;;;;;28.91;42.80;100495.00;4926500;28;46117;-86
2021/07/25 01:16:05;;;;;;;;;1.67;1.67;;;;;28.90;42.32;100491.50;4927656;28;45437;-85
2021/07/25 01:18:30;;;;;;;;;1.33;1.33;;;;;28.91;42.79;100486.97;4927776;28;46016;-84
2021/07/25 01:20:56;;;;;;;;;1.33;1.33;;;;;28.93;42.22;100496.41;4925714;28;45504;-86
2021/07/25 01:23:23;;;;;;;;;1.67;1.67;;;;;28.92;42.68;100491.25;4922610;28;47240;-85
2021/07/25 01:25:55;;;;;;;;;1.00;1.00;;;;;28.95;42.18;100493.47;4924040;28;45426;-85
2021/07/25 01:28:29;;;;;;;;;1.00;1.00;;;;;28.95;42.16;100485.44;4927578;28;45312;-86
2021/07/25 01:30:57;;;;;;;;;0.33;0.33;;;;;28.94;41.82;100489.97;4927295;28;45558;-85
2021/07/25 01:33:31;;;;;;;;;0.00;0.00;;;;;28.96;42.05;100489.75;4927272;28;47393;-85
2021/07/25 01:35:58;;;;;;;;;0.00;0.00;;;;;28.97;42.23;100488.69;4925415;28;45264;-85
2021/07/25 01:38:28;;;;;;;;;1.00;1.00;;;;;28.97;42.25;100488.69;4922809;28;49448;-85
2021/07/25 01:41:15;;;;;;;;;1.00;1.00;;;;;28.98;42.14;100484.97;4931103;28;45477;-85
2021/07/25 01:43:43;;;;;;;;;1.00;1.00;;;;;28.98;42.58;100479.63;4934072;28;46439;-85
2021/07/25 01:46:09;;;;;;;;;1.00;1.00;;;;;28.93;42.35;100474.97;4930539;28;45536;-85
2021/07/25 01:48:36;;;;;;;;;2.00;2.00;;;;;28.96;42.47;100473.69;4927130;28;46388;-85
2021/07/25 01:51:02;;;;;;;;;1.33;1.33;;;;;28.97;42.35;100477.97;4925564;28;45291;-85
2021/07/25 01:53:27;;;;;;;;;1.67;1.00;;;;;28.99;42.46;100475.88;4922414;28;46774;-85
2021/07/25 01:55:53;;;;;;;;;1.67;1.67;;;;;29.00;42.33;100476.69;4925102;28;45365;-85
2021/07/25 01:58:18;;;;;;;;;1.00;1.00;;;;;29.02;42.03;100471.91;4934418;28;45486;-85
2021/07/25 02:00:44;;;;;;;;;2.00;0.00;;;;;29.03;41.64;100478.91;4933315;28;45349;-86
2021/07/25 02:03:09;;;;;;;;;1.00;1.00;;;;;29.04;41.95;100480.53;4926514;28;45477;-85
2021/07/25 02:05:36;;;;;;;;;2.00;2.00;;;;;29.05;42.11;100479.47;4921991;28;45316;-85
2021/07/25 02:08:02;;;;;;;;;1.67;1.67;;;;;29.03;41.81;100479.72;4923907;28;45296;-85
2021/07/25 02:10:27;;;;;;;;;2.00;0.33;;;;;29.02;41.99;100470.03;4926800;28;45370;-85
2021/07/25 02:12:52;;;;;;;;;0.00;0.00;;;;;29.04;41.96;100477.88;4926188;28;50807;-85
2021/07/25 02:15:18;;;;;;;;;4.00;2.00;;;;;29.00;42.18;100458.75;4926665;28;45405;-85
2021/07/25 02:17:43;;;;;;;;;1.67;1.67;;;;;29.02;41.78;100467.38;4923491;28;46044;-85
2021/07/25 02:20:09;;;;;;;;;2.00;1.33;;;;;29.05;41.72;100476.78;4922795;28;45377;-86
2021/07/25 02:22:34;;;;;;;;;1.00;1.00;;;;;29.05;41.94;100468.75;4937442;28;45348;-85
2021/07/25 02:25:00;;;;;;;;;1.33;1.33;;;;;29.06;41.58;100470.41;4929430;28;51056;-86
2021/07/25 02:27:25;;;;;;;;;1.67;1.33;;;;;29.06;41.52;100473.06;4926657;28;45711;-85
2021/07/25 02:29:51;;;;;;;;;2.00;2.00;;;;;29.05;42.15;100469.56;4924381;28;45405;-85
2021/07/25 02:32:16;;;;;;;;;2.00;1.00;;;;;29.05;41.86;100474.94;4937288;28;45599;-86
2021/07/25 02:34:41;;;;;;;;;3.67;2.00;;;;;29.06;42.21;100470.41;4925635;28;45365;-86
2021/07/25 02:37:11;;;;;;;;;3.00;1.00;;;;;29.06;41.54;100473.91;4926581;28;45416;-85
2021/07/25 02:39:37;;;;;;;;;1.00;1.00;;;;;29.09;41.79;100469.09;4926505;28;45258;-86
2021/07/25 02:42:03;;;;;;;;;1.33;0.67;;;;;29.06;41.99;100463.19;4925262;28;46235;-86
2021/07/25 02:44:28;;;;;;;;;2.33;1.67;;;;;29.07;42.17;100467.47;4921886;28;45583;-85
2021/07/25 02:46:53;;;;;;;;;1.00;1.00;;;;;29.07;42.24;100462.13;4938038;28;45346;-85
2021/07/25 02:49:19;;;;;;;;;1.00;1.00;;;;;29.06;41.81;100460.50;4927968;28;45437;-85
2021/07/25 02:51:44;;;;;;;;;4.00;1.00;;;;;29.07;41.71;100466.66;4932373;28;45989;-86
2021/07/25 02:54:10;;;;;;;;;2.67;2.00;;;;;29.08;42.56;100462.94;4933727;28;45460;-86
2021/07/25 02:56:35;;;;;;;;;2.00;2.00;;;;;29.11;41.92;100465.16;4932941;28;45835;-85
2021/07/25 02:59:00;;;;;;;;;3.00;3.00;;;;;29.13;42.32;100468.41;4936392;28;45445;-86
2021/07/25 03:01:26;;;;;;;;;0.00;0.00;;;;;29.13;42.17;100467.59;4936365;28;46047;-86
2021/07/25 03:03:51;;;;;;;;;1.67;1.67;;;;;29.13;41.85;100463.06;4937234;28;45528;-85
2021/07/25 03:06:16;;;;;;;;;2.00;2.00;;;;;29.14;41.91;100462.03;4936008;28;45519;-86
2021/07/25 03:08:42;;;;;;;;;1.33;1.33;;;;;29.13;42.34;100460.38;4936672;28;45475;-86
2021/07/25 03:11:08;;;;;;;;;2.00;1.00;;;;;29.14;41.71;100458.53;4935902;28;46921;-85
2021/07/25 03:13:34;;;;;;;;;1.00;1.00;;;;;29.14;41.82;100461.19;4930624;28;45321;-86
2021/07/25 03:16:07;;;;;;;;;1.00;1.00;;;;;29.09;41.75;100453.88;4933834;28;45439;-86
2021/07/25 03:18:32;;;;;;;;;2.67;1.00;;;;;29.15;41.92;100466.31;4937396;28;45510;-85
2021/07/25 03:20:59;;;;;;;;;2.00;0.00;;;;;29.15;42.33;100458.28;4937742;28;45554;-86
2021/07/25 03:23:24;;;;;;;;;2.00;2.00;;;;;29.09;42.33;100455.72;4937377;28;45444;-86
2021/07/25 03:25:50;;;;;;;;;2.33;1.00;;;;;29.14;41.81;100461.19;4935846;28;45447;-86
2021/07/25 03:28:15;;;;;;;;;2.67;1.67;;;;;29.13;42.22;100460.38;4935941;28;45468;-86
2021/07/25 03:30:41;;;;;;;;;2.67;2.00;;;;;29.13;41.89;100460.38;4933615;28;46310;-86
2021/07/25 03:33:06;;;;;;;;;1.00;1.00;;;;;29.15;42.14;100462.81;4934606;28;45346;-85
2021/07/25 03:35:33;;;;;;;;;1.33;1.33;;;;;29.14;42.11;100454.00;4935434;28;45455;-87
2021/07/25 03:37:59;;;;;;;;;4.67;1.00;;;;;29.16;42.11;100462.59;4935724;28;45489;-85
2021/07/25 03:40:24;;;;;;;;;1.33;1.33;;;;;29.15;42.11;100450.25;4934974;28;47001;-85
2021/07/25 03:42:50;;;;;;;;;2.00;2.00;;;;;29.15;42.24;100447.56;4932888;28;45623;-85
2021/07/25 03:45:16;;;;;;;;;3.00;1.00;;;;;29.12;41.90;100442.69;4933142;28;45523;-85
2021/07/25 03:47:41;;;;;;;;;4.67;2.00;;;;;29.14;42.07;100445.13;4936400;28;45399;-85
2021/07/25 03:50:07;;;;;;;;;3.00;1.67;;;;;29.16;42.09;100437.66;4935471;28;45446;-85
2021/07/25 03:52:37;;;;;;;;;2.33;1.67;;;;;29.15;42.25;100434.16;4935872;28;45794;-85
2021/07/25 03:55:04;;;;;;;;;1.00;1.00;;;;;29.16;42.20;100435.00;4930986;28;45831;-85
2021/07/25 03:57:32;;;;;;;;;3.00;2.00;;;;;29.16;42.19;100432.31;4934554;28;45622;-85
2021/07/25 03:59:57;;;;;;;;;1.00;1.00;;;;;29.15;41.62;100430.66;4934798;28;46261;-86
2021/07/25 04:02:22;;;;;;;;;2.33;2.33;;;;;29.16;42.19;100435.81;4934139;28;46124;-86
2021/07/25 04:04:48;;;;;;;;;2.00;1.00;;;;;29.16;41.56;100440.34;4937379;28;45427;-85
2021/07/25 04:07:13;;;;;;;;;2.33;2.00;;;;;29.15;42.19;100436.03;4937795;28;45325;-85
2021/07/25 04:09:39;;;;;;;;;3.00;3.00;;;;;29.16;42.23;100443.03;4933309;28;47103;-85
2021/07/25 04:12:04;;;;;;;;;2.00;1.00;;;;;29.14;42.14;100437.91;4937576;28;45495;-85
2021/07/25 04:14:30;;;;;;;;;3.00;0.67;;;;;29.15;42.18;100438.69;4936149;28;45359;-85
2021/07/25 04:16:55;;;;;;;;;1.33;1.33;;;;;29.09;41.82;100428.94;4933421;28;45523;-85
2021/07/25 04:19:20;;;;;;;;;1.00;1.00;;;;;29.15;42.16;100439.53;4936322;28;47164;-86
2021/07/25 04:21:46;;;;;;;;;1.33;1.33;;;;;29.15;42.04;100434.16;4937795;28;52137;-85
2021/07/25 04:24:11;;;;;;;;;2.67;1.67;;;;;29.16;41.68;100435.00;4937600;28;45416;-85
2021/07/25 04:26:36;;;;;;;;;3.67;2.00;;;;;29.17;41.55;100440.09;4935181;28;45888;-85
2021/07/25 04:29:02;;;;;;;;;2.00;2.00;;;;;29.17;41.52;100445.44;4933243;28;46127;-85
2021/07/25 04:31:28;;;;;;;;;2.33;1.00;;;;;29.15;41.99;100434.16;4936600;28;45382;-85
2021/07/25 04:33:55;;;;;;;;;1.67;1.33;;;;;29.17;41.62;100429.38;4938386;28;45515;-85
2021/07/25 04:36:27;;;;;;;;;2.00;1.00;;;;;29.16;42.30;100429.63;4934083;28;45595;-86
2021/07/25 04:38:54;;;;;;;;;2.00;2.00;;;;;29.16;41.50;100435.81;4936958;28;46576;-86
2021/07/25 04:41:34;;;;;;;;;5.00;2.00;;;;;29.16;42.40;100435.81;4937075;28;45580;-86
2021/07/25 04:44:23;;;;;;;;;1.00;1.00;;;;;29.18;41.63;100438.22;4937628;28;45528;-85
2021/07/25 04:46:54;;;;;;;;;1.00;1.00;;;;;29.17;41.79;100431.28;4936074;28;45903;-85
2021/07/25 04:49:30;;;;;;;;;2.67;2.00;;;;;29.15;42.13;100433.34;4934187;28;47531;-85
2021/07/25 04:51:55;;;;;;;;;4.33;1.33;;;;;29.15;41.60;100434.16;4934716;28;45307;-85
2021/07/25 04:54:21;;;;;;;;;0.67;0.67;;;;;29.15;41.87;100439.53;4937395;28;45334;-85
2021/07/25 04:57:01;;;;;;;;;1.00;1.00;;;;;29.16;41.66;100440.34;4937204;28;45465;-85
2021/07/25 04:59:30;;;;;;;;;1.33;1.33;;;;;29.15;41.55;100450.25;4938200;28;46964;-85
2021/07/25 05:02:04;;;;;;;;;3.00;1.67;;;;;29.15;41.88;100444.06;4935188;28;45465;-85
2021/07/25 05:04:31;;;;;;;;;1.00;0.33;;;;;29.15;42.03;100452.91;4937402;28;45551;-85
2021/07/25 05:06:57;;;;;;;;;1.00;1.00;;;;;29.14;41.48;100445.13;4939377;28;45489;-86
2021/07/25 05:09:23;;;;;;;;;2.00;2.00;;;;;29.15;41.71;100455.59;4936611;28;46311;-86
2021/07/25 05:12:10;;;;;;;;;1.00;1.00;;;;;29.16;42.23;100451.06;4936329;28;45477;-85
2021/07/25 05:14:42;;;;;;;;;1.33;1.33;;;;;29.16;41.80;100451.88;4936013;28;45496;-85
2021/07/25 05:17:07;;;;;;;;;1.00;1.00;;;;;29.16;41.83;100451.06;4934099;28;45206;-88
2021/07/25 05:19:44;;;;;;;;;1.00;1.00;;;;;29.16;41.53;100451.06;4936810;28;46185;-85
2021/07/25 05:22:15;;;;;;;;;1.00;1.00;;;;;29.16;41.57;100461.78;4930892;28;45503;-86
2021/07/25 05:24:45;;;;;;;;;3.33;1.00;;;;;29.16;42.16;100451.06;4934783;28;45564;-86
2021/07/25 05:27:43;;;;;;;;;0.00;0.00;;;;;29.11;42.07;100440.25;4935341;28;45452;-85
2021/07/25 05:30:10;;;;;;;;;1.00;1.00;;;;;29.16;41.96;100461.78;4933089;28;45373;-85
2021/07/25 05:32:36;;;;;;;;;1.00;1.00;;;;;29.16;41.50;100453.75;4951044;28;45537;-85
2021/07/25 05:35:02;;;;;;;;;2.00;2.00;;;;;29.14;41.98;100450.50;4934187;28;45436;-85
2021/07/25 05:37:27;;;;;;;;;1.00;1.00;;;;;29.13;41.42;100451.53;4935127;28;45555;-85
2021/07/25 05:39:52;;;;;;;;;1.00;1.00;;;;;29.16;41.87;100451.06;4935736;28;46136;-85
2021/07/25 05:42:18;;;;;;;;;2.33;1.00;;;;;29.13;41.98;100443.50;4936056;28;45524;-85
2021/07/25 05:44:43;;;;;;;;;2.33;2.33;;;;;29.16;42.23;100451.06;4935563;28;45838;-84
2021/07/25 05:47:08;;;;;;;;;2.00;2.00;;;;;29.15;42.32;100447.56;4932897;28;45689;-85
2021/07/25 05:49:34;;;;;;;;;2.00;2.00;;;;;29.16;42.20;100445.69;4933743;28;45982;-85
2021/07/25 05:51:59;;;;;;;;;1.67;1.00;;;;;29.17;41.55;100444.66;4935934;28;45380;-85
2021/07/25 05:54:25;;;;;;;;;1.00;1.00;;;;;29.11;41.42;100437.56;4932006;28;45661;-84
2021/07/25 05:56:50;;;;;;;;;2.00;2.00;;;;;29.15;41.70;100444.88;4937837;28;45462;-85
2021/07/25 05:59:15;;;;;;;;;1.00;1.00;;;;;29.15;41.63;100450.25;4937220;28;45594;-85
2021/07/25 06:01:41;;;;;;;;;3.00;2.00;;;;;29.16;41.81;100453.75;4925848;28;51405;-85
2021/07/25 06:04:06;;;;;;;;;2.00;1.00;;;;;29.15;41.74;100460.13;4926764;28;45643;-85
2021/07/25 06:06:33;;;;;;;;;2.00;2.00;;;;;29.16;42.38;100457.22;4926672;28;45429;-85
2021/07/25 06:08:58;;;;;;;;;1.33;1.33;;;;;29.17;41.98;100452.69;4924786;28;46266;-85
2021/07/25 06:11:24;;;;;;;;;0.67;0.67;;;;;29.16;41.73;100453.75;4922005;28;45518;-85
2021/07/25 06:13:51;;;;;;;;;5.00;1.00;;;;;29.15;42.13;100446.75;4924827;28;45201;-85
2021/07/25 06:16:17;;;;;;;;;1.00;1.00;;;;;29.13;42.21;100447.00;4934964;28;45401;-84
2021/07/25 06:18:45;;;;;;;;;0.33;0.33;;;;;29.12;41.36;100445.34;4937271;28;45931;-84
2021/07/25 06:21:12;;;;;;;;;1.67;1.00;;;;;29.16;41.98;100453.75;4937301;28;45796;-85
2021/07/25 06:23:37;;;;;;;;;2.00;2.00;;;;;29.13;42.12;100447.00;4921755;28;45391;-85
2021/07/25 06:26:02;;;;;;;;;3.00;2.33;;;;;29.16;41.71;100456.41;4923289;28;45359;-85
2021/07/25 06:28:28;;;;;;;;;2.33;1.67;;;;;29.12;42.34;100460.63;4924885;28;46231;-84
2021/07/25 06:30:53;;;;;;;;;1.00;1.00;;;;;29.14;42.25;100458.53;4926369;28;45483;-84
2021/07/25 06:33:18;;;;;;;;;1.00;1.00;;;;;29.14;42.27;100467.38;4926292;28;45435;-84
2021/07/25 06:35:44;;;;;;;;;1.00;1.00;;;;;29.12;41.82;100460.63;4922489;28;45289;-84
2021/07/25 06:38:14;;;;;;;;;1.00;1.00;;;;;29.13;41.63;100463.06;4922388;28;46132;-85
2021/07/25 06:40:45;;;;;;;;;3.33;2.00;;;;;29.14;41.75;100458.53;4925403;28;45401;-85
2021/07/25 06:43:10;;;;;;;;;1.33;1.00;;;;;29.15;41.55;100468.16;4925959;28;45383;-84
2021/07/25 06:45:36;;;;;;;;;2.00;1.67;;;;;29.10;41.80;100463.53;4926022;28;45315;-84
2021/07/25 06:48:02;;;;;;;;;2.00;1.00;;;;;29.15;42.12;100465.50;4924456;28;46017;-84
2021/07/25 06:50:29;;;;;;;;;1.67;1.67;;;;;29.14;42.23;100470.06;4921499;28;45358;-84
2021/07/25 06:52:56;;;;;;;;;4.67;2.00;;;;;29.15;41.50;100463.63;4924280;28;45466;-84
2021/07/25 06:55:24;;;;;;;;;1.67;1.67;;;;;29.14;41.81;100463.88;4925372;28;45440;-84
2021/07/25 06:57:49;;;;;;;;;1.33;1.33;;;;;29.13;41.97;100459.56;4926476;28;45480;-84
2021/07/25 07:00:15;;;;;;;;;0.67;0.33;;;;;29.13;41.68;100462.25;4936347;28;45318;-85
2021/07/25 07:02:48;;;;;;;;;2.00;2.00;;;;;29.12;41.96;100464.09;4921999;28;45510;-85
2021/07/25 07:05:19;;;;;;;;;1.00;1.00;;;;;29.14;42.16;100459.34;4934065;28;45457;-84
2021/07/25 07:07:46;;;;;;;;;1.33;1.33;;;;;29.10;41.89;100454.69;4931993;28;46244;-84
2021/07/25 07:10:13;;;;;;;;;1.00;1.00;;;;;29.16;41.89;100459.09;4928556;28;45475;-85
2021/07/25 07:12:38;;;;;;;;;2.67;1.00;;;;;29.12;41.96;100463.31;4925695;28;45516;-85
2021/07/25 07:15:06;;;;;;;;;3.67;1.67;;;;;29.15;41.69;100462.81;4924533;28;45276;-85
2021/07/25 07:17:31;;;;;;;;;1.33;1.00;;;;;29.13;42.41;100457.69;4921410;28;46575;-84
2021/07/25 07:19:57;;;;;;;;;2.00;2.00;;;;;29.11;42.32;100449.09;4923429;28;45378;-84
2021/07/25 07:22:29;;;;;;;;;1.00;1.00;;;;;29.16;41.52;100464.44;4925669;28;45260;-84
2021/07/25 07:24:55;;;;;;;;;1.00;1.00;;;;;29.15;42.18;100463.63;4925520;28;45406;-85
2021/07/25 07:27:22;;;;;;;;;2.33;1.00;;;;;29.13;41.71;100451.53;4925435;28;46276;-86
2021/07/25 07:29:47;;;;;;;;;1.00;1.00;;;;;29.11;42.01;100465.16;4922265;28;47725;-85
2021/07/25 07:32:13;;;;;;;;;1.33;1.33;;;;;29.14;42.05;100466.56;4921031;28;45374;-84
2021/07/25 07:34:38;;;;;;;;;0.67;0.67;;;;;29.15;41.50;100466.31;4925557;28;45458;-86
2021/07/25 07:37:04;;;;;;;;;4.00;1.33;;;;;29.10;41.88;100458.19;4927820;28;46273;-85
2021/07/25 07:39:30;;;;;;;;;3.00;2.00;;;;;29.13;41.95;100463.06;4935250;28;45432;-85
2021/07/25 07:41:55;;;;;;;;;2.00;2.00;;;;;29.13;41.90;100463.06;4926545;28;45512;-85
2021/07/25 07:44:20;;;;;;;;;2.00;2.00;;;;;29.10;41.71;100463.53;4924346;28;45422;-85
2021/07/25 07:46:45;;;;;;;;;3.00;3.00;;;;;29.12;41.35;100472.13;4927831;28;45468;-85
2021/07/25 07:49:11;;;;;;;;;2.67;2.67;;;;;29.15;42.06;100465.50;4928586;28;45413;-85
2021/07/25 07:51:36;;;;;;;;;2.67;2.00;;;;;29.14;42.04;100471.91;4928797;28;45376;-84
2021/07/25 07:54:01;;;;;;;;;1.67;1.67;;;;;29.07;42.17;100454.06;4926913;28;45564;-85
2021/07/25 07:56:29;;;;;;;;;3.67;2.00;;;;;29.11;41.90;100461.66;4923944;28;46625;-85
2021/07/25 07:58:55;;;;;;;;;3.00;3.00;;;;;29.15;41.97;100462.81;4926751;28;45285;-85
2021/07/25 08:01:20;;;;;;;;;1.00;1.00;;;;;29.14;42.05;100469.25;4937372;28;45419;-84
2021/07/25 08:03:45;;;;;;;;;3.33;2.00;;;;;29.10;41.59;100465.38;4935288;28;46995;-84
2021/07/25 08:06:10;;;;;;;;;2.67;2.67;;;;;29.14;41.39;100467.38;4922432;28;47272;-84
2021/07/25 08:08:36;;;;;;;;;2.00;2.00;;;;;29.13;41.33;100462.25;4938861;28;45282;-84
2021/07/25 08:11:01;;;;;;;;;2.00;2.00;;;;;29.14;41.60;100469.25;4925699;28;45421;-85
2021/07/25 08:13:26;;;;;;;;;2.00;2.00;;;;;29.09;41.61;100464.59;4928088;28;45434;-84
2021/07/25 08:15:52;;;;;;;;;4.00;2.00;;;;;29.13;42.04;100468.41;4929101;28;45327;-84
2021/07/25 08:18:18;;;;;;;;;3.00;2.00;;;;;29.09;41.80;100459.25;4938698;28;45480;-84
2021/07/25 08:20:43;;;;;;;;;1.33;1.33;;;;;29.15;41.36;100465.50;4924606;28;45272;-85
2021/07/25 08:23:08;;;;;;;;;1.00;1.00;;;;;29.14;41.58;100467.38;4924398;28;45920;-84
2021/07/25 08:25:34;;;;;;;;;1.00;1.00;;;;;29.15;41.84;100476.22;4928140;28;46269;-85
2021/07/25 08:27:59;;;;;;;;;1.67;1.67;;;;;29.13;41.80;100479.13;4928156;28;45440;-84
2021/07/25 08:30:25;;;;;;;;;4.00;4.00;;;;;29.14;42.03;100477.28;4928176;28;45444;-83
2021/07/25 08:32:51;;;;;;;;;1.33;1.33;;;;;29.14;41.47;100478.09;4925132;28;45582;-77
2021/07/25 08:35:16;;;;;;;;;3.00;3.00;;;;;29.13;41.86;100483.66;4924740;28;45641;-80
2021/07/25 08:37:41;;;;;;;;;3.00;3.00;;;;;29.08;41.93;100479.00;4934503;28;45357;-84
2021/07/25 08:40:07;;;;;;;;;4.67;2.33;;;;;29.13;42.00;100486.34;4932440;28;45618;-85
2021/07/25 08:42:40;;;;;;;;;3.67;2.33;;;;;29.14;41.34;100491.47;4935583;28;45567;-87
2021/07/25 08:45:06;;;;;;;;;2.00;2.00;;;;;29.16;42.02;100480.53;4937074;28;45485;-88
2021/07/25 08:47:37;;;;;;;;;2.33;2.00;;;;;29.16;42.03;100488.56;4934006;28;45394;-83
2021/07/25 08:50:10;;;;;;;;;2.00;2.00;;;;;29.16;41.77;100486.69;4937261;28;45457;-84
2021/07/25 08:52:44;;;;;;;;;2.00;2.00;;;;;29.13;42.29;100486.34;4936387;28;45407;-86
2021/07/25 08:55:16;;;;;;;;;2.67;2.67;;;;;29.17;42.02;100484.84;4935410;28;46397;-78
2021/07/25 08:57:44;;;;;;;;;2.00;2.00;;;;;29.12;42.28;100479.38;4935529;28;45554;-80
2021/07/25 09:00:13;;;;;;;;;3.00;2.00;;;;;29.19;41.81;100482.72;4934060;28;45501;-83
2021/07/25 09:02:39;;;;;;;;;2.00;2.00;;;;;29.19;41.96;100482.72;4934812;28;45557;-85
2021/07/25 09:05:05;;;;;;;;;3.00;2.33;;;;;29.19;42.10;100490.75;4934339;28;46164;-82
2021/07/25 09:07:32;;;;;;;;;3.33;2.00;;;;;29.20;41.58;100494.25;4932209;28;45577;-84
2021/07/25 09:10:01;;;;;;;;;4.00;2.33;;;;;29.19;42.09;100485.41;4933122;28;45526;-82
2021/07/25 09:12:28;;;;;;;;;3.67;2.67;;;;;29.20;41.86;100484.34;4935212;28;45434;-85
2021/07/25 09:14:56;;;;;;;;;5.00;2.00;;;;;29.21;42.28;100490.50;4934048;28;46168;-83
2021/07/25 09:17:22;;;;;;;;;2.00;2.00;;;;;29.19;42.08;100501.47;4932033;28;45504;-88
2021/07/25 09:20:13;;;;;;;;;3.00;3.00;;;;;29.22;42.54;100492.97;4934270;28;45425;-83
2021/07/25 09:22:59;;;;;;;;;3.00;3.00;;;;;29.22;42.43;100490.28;4935202;28;45295;-84
2021/07/25 09:25:25;;;;;;;;;2.00;2.00;;;;;29.22;42.19;100490.28;4930964;28;47567;-84
2021/07/25 09:27:56;;;;;;;;;3.00;3.00;;;;;29.25;41.80;100491.69;4933023;28;45500;-81
2021/07/25 09:30:23;;;;;;;;;2.33;1.00;;;;;29.25;42.47;100483.66;4936049;28;45480;-78
2021/07/25 09:32:49;;;;;;;;;2.67;1.00;;;;;29.25;42.21;100468.38;4935470;28;45490;-77
2021/07/25 09:35:32;;;;;;;;;2.33;2.33;;;;;29.28;42.48;100478.59;4936258;28;46283;-78
2021/07/25 09:38:10;;;;;;;;;2.00;2.00;;;;;29.29;42.11;100472.22;4934443;28;45308;-77
2021/07/25 09:40:37;;;;;;;;;6.00;3.00;;;;;29.30;42.30;100483.75;4934992;28;45536;-78
2021/07/25 09:43:11;;;;;;;;;2.33;2.33;;;;;29.31;41.95;100473.81;4932914;28;45487;-78
2021/07/25 09:45:54;;;;;;;;;3.00;3.00;;;;;29.36;42.63;100471.22;4932324;28;45543;-79
2021/07/25 09:48:21;;;;;;;;;5.75;3.25;;;;;29.25;43.23;100475.63;4927242;28;45466;-81
2021/07/25 09:50:47;;;;;;;;;7.00;5.50;;;;;29.02;43.79;100474.59;4934834;28;45384;-81
2021/07/25 09:53:14;;;;;;;;;6.67;4.33;;;;;28.80;44.56;100473.38;4934799;28;45492;-81
2021/07/25 09:55:40;;;;;;;;;7.67;7.00;;;;;28.60;44.51;100463.84;4931968;28;47045;-82
2021/07/25 09:58:06;;;;;;;;;6.33;6.33;;;;;28.55;44.65;100469.09;4934027;28;45588;-79
2021/07/25 10:00:46;;;;;;;;;5.00;5.00;;;;;28.35;43.93;100475.59;4935859;28;45496;-82
2021/07/25 10:03:17;;;;;;;;;6.00;5.00;;;;;28.17;44.81;100458.59;4933201;28;45592;-81
2021/07/25 10:05:43;;;;;;;;;6.00;5.00;;;;;28.03;45.49;100460.69;4933427;28;47298;-81
2021/07/25 10:08:15;;;;;;;;;5.00;5.00;;;;;27.90;45.82;100456.34;4932601;28;45569;-81
2021/07/25 10:10:42;;;;;;;;;4.50;4.50;;;;;27.80;45.81;100466.78;4934421;28;45296;-82
2021/07/25 10:13:08;;;;;;;;;4.25;4.25;;;;;27.66;46.11;100458.16;4933007;28;45277;-81
2021/07/25 10:15:36;;;;;;;;;6.00;6.00;;;;;27.58;46.16;100467.31;4933502;28;46105;-81
2021/07/25 10:18:01;;;;;;;;;8.00;5.25;;;;;27.51;46.48;100470.88;4932766;28;45562;-80
2021/07/25 10:20:28;;;;;;;;;6.50;5.75;;;;;27.39;47.73;100470.00;4933303;28;45490;-79
2021/07/25 10:22:59;;;;;;;;;8.00;5.00;;;;;27.32;48.14;100463.94;4935718;28;45275;-78
2021/07/25 10:25:28;;;;;;;;;4.00;4.00;;;;;27.30;47.65;100464.16;4932424;28;47248;-77
2021/07/25 10:27:57;;;;;;;;;5.50;5.50;;;;;27.27;47.12;100454.75;4933489;28;46230;-77
2021/07/25 10:30:23;;;;;;;;;6.25;6.00;;;;;27.27;47.08;100465.44;4930795;28;45418;-80
2021/07/25 10:32:49;;;;;;;;;4.50;4.50;;;;;27.27;47.46;100449.41;4935053;28;45533;-78
2021/07/25 10:35:14;;;;;;;;;6.00;5.25;;;;;27.33;47.12;100454.88;4938152;28;45602;-78
2021/07/25 10:37:40;;;;;;;;;5.75;4.50;;;;;27.32;46.81;100450.59;4941075;28;45623;-81
2021/07/25 10:40:09;;;;;;;;;6.00;5.75;;;;;27.32;47.47;100443.41;4937886;28;45421;-78
2021/07/25 10:42:49;;;;;;;;;7.50;6.75;;;;;27.30;46.60;100445.47;4938063;28;45612;-78
2021/07/25 10:45:15;;;;;;;;;6.75;6.75;;;;;27.22;46.64;100441.25;4931642;28;46717;-77
2021/07/25 10:47:43;;;;;;;;;5.50;5.50;;;;;27.20;46.71;100446.00;4938862;28;45438;-78
2021/07/25 10:50:18;;;;;;;;;8.00;6.00;;;;;27.16;46.77;100452.84;4932867;28;45693;-76
2021/07/25 10:52:52;;;;;;;;;5.50;5.50;;;;;27.21;47.46;100447.66;4938159;28;45460;-76
2021/07/25 10:55:47;;;;;;;;;4.25;4.25;;;;;27.29;46.45;100452.69;4936192;28;46308;-76
2021/07/25 10:58:20;;;;;;;;;7.00;6.00;;;;;27.27;46.56;100452.06;4923000;28;45568;-77
2021/07/25 11:00:47;;;;;;;;;6.00;5.00;;;;;27.25;45.84;100454.16;4935712;28;45358;-75
2021/07/25 11:03:24;;;;;;;;;6.00;6.00;;;;;27.21;45.87;100458.34;4942852;28;45341;-77
2021/07/25 11:06:17;;;;;;;;;4.00;4.00;;;;;27.25;46.38;100451.50;4932370;28;46131;-76
2021/07/25 11:08:46;;;;;;;;;4.25;4.25;;;;;27.34;46.41;100456.53;4937627;28;44983;-78
2021/07/25 11:11:34;;;;;;;;;5.00;5.00;;;;;27.38;46.07;100449.69;4953607;28;45492;-77
2021/07/25 11:14:04;;;;;;;;;5.00;5.00;;;;;27.40;45.98;100444.94;4937293;28;45698;-79
2021/07/25 11:16:29;;;;;;;;;4.75;3.75;;;;;27.40;46.46;100459.09;4937416;28;46499;-79
2021/07/25 11:18:58;;;;;;;;;4.00;4.00;;;;;27.43;45.08;100454.38;4932258;28;45379;-80
2021/07/25 11:21:36;;;;;;;;;6.00;6.00;;;;;27.40;45.93;100451.09;4933444;28;45349;-79
2021/07/25 11:24:20;;;;;;;;;5.00;4.00;;;;;27.38;45.50;100455.03;4934622;28;45923;-79
2021/07/25 11:26:47;;;;;;;;;5.25;5.00;;;;;27.36;46.70;100457.94;4932175;28;45499;-78
2021/07/25 11:29:17;;;;;;;;;5.00;5.00;;;;;27.39;45.60;100460.16;4935253;28;45377;-78